Perrysburg, Ohio
Current Conditions -  °F | °C
As of 1:53 PM on Thursday 18 Dec 2014 (Local Time) from KTDZ Reporting Station
Overcast Overcast  
Wind Chill: -6°   Ceiling: 1600
Heat Index:   Visibility: 10mi
Dew Point: -4°   Wind: 14mph
Humidity: 73%   Direction: 250°WSW
Pressure: 30.19"   Gusts: NA
Location:  41.56°N, 83.63°W
Report Text: KTDZ 181853Z AUTO 25012KT 10SM OVC016 00/M04 A3019 RMK AO2 SLP229 T00001044 TSNO
Loading
Personal Weather Stations






























Interactive Weather Map New forecast layout! Learn more

10-Day Weather Forecast

Advertisements
Track Severe Weather on mobile